METAR Data
IDs: Format: Raw Decoded Include TAF

Data at: 2101 UTC 26 May 2019

KHPT 262055Z AUTO 00000KT 10SM CLR 24/11 A3006 RMK AO2
KHPT 262035Z AUTO 00000KT 10SM CLR 24/11 A3006 RMK AO2
KHPT 262015Z AUTO 00000KT 10SM CLR 23/12 A3007 RMK AO2
KHPT 261955Z AUTO 00000KT 10SM CLR 23/11 A3007 RMK AO2
KHPT 261935Z AUTO 00000KT 10SM CLR 22/11 A3008 RMK AO2
KHPT 261915Z AUTO 00000KT 10SM CLR 22/11 A3008 RMK AO2
KHPT 261855Z AUTO 00000KT 10SM CLR 22/10 A3009 RMK AO2
KHPT 261835Z AUTO 00000KT 10SM CLR 21/11 A3009 RMK AO2
KHPT 261815Z AUTO 00000KT 10SM CLR 21/11 A3009 RMK AO2
KHPT 261755Z AUTO 00000KT 10SM CLR 21/11 A3009 RMK AO2
KHPT 261735Z AUTO 00000KT 10SM CLR 21/11 A3011 RMK AO2
KHPT 261715Z AUTO 00000KT 10SM CLR 20/11 A3011 RMK AO2
KHPT 261655Z AUTO 00000KT 10SM CLR 20/11 A3012 RMK AO2
KHPT 261635Z AUTO 00000KT 10SM CLR 20/11 A3012 RMK AO2
KHPT 261615Z AUTO 00000KT 10SM CLR 19/11 A3011 RMK AO2
KHPT 261555Z AUTO 00000KT 10SM CLR 18/11 A3011 RMK AO2
KHPT 261535Z AUTO 00000KT 10SM CLR 18/11 A3010 RMK AO2
KHPT 261515Z AUTO 00000KT 10SM CLR 18/11 A3011 RMK AO2
KHPT 261455Z AUTO 00000KT 10SM CLR 18/11 A3011 RMK AO2
KHPT 261435Z AUTO 00000KT 10SM CLR 17/11 A3011 RMK AO2
KHPT 261415Z AUTO 00000KT 10SM CLR 17/11 A3010 RMK AO2
KHPT 261355Z AUTO 00000KT 10SM CLR 17/11 A3009 RMK AO2
KHPT 261335Z AUTO 00000KT 10SM CLR 16/11 A3008 RMK AO2
KHPT 261315Z AUTO 00000KT 10SM CLR 15/10 A3008 RMK AO2
KHPT 261255Z AUTO 00000KT 10SM CLR 15/11 A3008 RMK AO2
KHPT 261235Z AUTO 00000KT 10SM CLR 13/11 A3008 RMK AO2
KHPT 261215Z AUTO 00000KT 10SM CLR 11/10 A3007 RMK AO2
KHPT 261155Z AUTO 00000KT 10SM CLR 10/10 A3008 RMK AO2
KHPT 261135Z AUTO 00000KT 10SM CLR 11/10 A3007 RMK AO2
KHPT 261115Z AUTO 00000KT 10SM CLR 11/10 A3007 RMK AO2
KHPT 261055Z AUTO 00000KT 10SM CLR 12/10 A3006 RMK AO2
KHPT 261035Z AUTO 00000KT 10SM CLR 12/10 A3006 RMK AO2
KHPT 261015Z AUTO 00000KT 10SM CLR 12/10 A3005 RMK AO2
KHPT 260955Z AUTO 00000KT 10SM CLR 12/10 A3004 RMK AO2
KHPT 260935Z AUTO 00000KT 10SM CLR 12/10 A3003 RMK AO2
KHPT 260915Z AUTO 35006KT 10SM CLR 12/10 A3004 RMK AO2
KHPT 260855Z AUTO 00000KT 10SM CLR 12/11 A3004 RMK AO2
KHPT 260835Z AUTO 00000KT 10SM CLR 12/11 A3005 RMK AO2
KHPT 260815Z AUTO 00000KT 10SM CLR 12/10 A3005 RMK AO2
KHPT 260755Z AUTO 00000KT 10SM CLR 13/11 A3005 RMK AO2
KHPT 260735Z AUTO 00000KT 10SM CLR 13/11 A3004 RMK AO2
KHPT 260715Z AUTO 00000KT 10SM CLR 13/10 A3003 RMK AO2
KHPT 260655Z AUTO 00000KT 10SM CLR 13/10 A3001 RMK AO2
KHPT 260635Z AUTO 36003KT 10SM CLR 13/11 A3002 RMK AO2
KHPT 260615Z AUTO 00000KT 10SM CLR 13/11 A3001 RMK AO2
KHPT 260555Z AUTO 01003KT 10SM CLR 14/11 A3001 RMK AO2
KHPT 260535Z AUTO 36005KT 10SM CLR 14/11 A3001 RMK AO2
KHPT 260515Z AUTO 00000KT 10SM CLR 14/11 A3000 RMK AO2
KHPT 260455Z AUTO 36006KT 10SM CLR 14/11 A3000 RMK AO2
KHPT 260435Z AUTO 36007KT 10SM CLR 15/11 A2999 RMK AO2
KHPT 260415Z AUTO 00000KT 10SM CLR 15/12 A2999 RMK AO2
KHPT 260355Z AUTO 00000KT 10SM CLR 15/12 A3001 RMK AO2
KHPT 260335Z AUTO 00000KT 10SM CLR 16/12 A3001 RMK AO2
KHPT 260315Z AUTO 00000KT 10SM CLR 16/12 A2999 RMK AO2
KHPT 260255Z AUTO 00000KT 10SM CLR 16/12 A2997 RMK AO2
KHPT 260235Z AUTO 00000KT 10SM CLR 16/12 A2996 RMK AO2
KHPT 260215Z AUTO 00000KT 10SM CLR 16/13 A2997 RMK AO2
KHPT 260155Z AUTO 00000KT 10SM CLR 18/13 A2996 RMK AO2
KHPT 260135Z AUTO 00000KT 10SM CLR 19/13 A2994 RMK AO2
KHPT 260115Z AUTO 00000KT 10SM CLR 20/13 A2993 RMK AO2
KHPT 260055Z AUTO 00000KT 10SM CLR 21/13 A2994 RMK AO2
KHPT 260035Z AUTO 32007KT 10SM CLR 22/13 A2992 RMK AO2
KHPT 260015Z AUTO 32009KT 10SM CLR 22/13 A2994 RMK AO2
KHPT 252355Z AUTO 30008KT 10SM CLR 22/13 A2994 RMK AO2
KHPT 252335Z AUTO 30009KT 10SM CLR 22/13 A2995 RMK AO2
KHPT 252315Z AUTO 29009G16KT 10SM CLR 23/13 A2995 RMK AO2
KHPT 252255Z AUTO 32004G14KT 10SM CLR 23/14 A2995 RMK AO2
KHPT 252235Z AUTO 28006KT 10SM CLR 23/13 A2996 RMK AO2
KHPT 252215Z AUTO 30012G16KT 10SM CLR 23/13 A2995 RMK AO2
KHPT 252155Z AUTO 27011G14KT 10SM CLR 23/14 A2996 RMK AO2
KHPT 252135Z AUTO 25010KT 10SM CLR 24/14 A2995 RMK AO2
KHPT 252115Z AUTO 28010G15KT 10SM CLR 23/13 A2995 RMK AO2
KHPT 252055Z AUTO 28007G16KT 10SM CLR 23/13 A2995 RMK AO2
KHPT 252035Z AUTO 26012G17KT 10SM CLR 23/14 A2996 RMK AO2
KHPT 252015Z AUTO 28008KT 10SM CLR 23/15 A2995 RMK AO2
KHPT 251955Z AUTO 27010G16KT 10SM CLR 23/14 A2994 RMK AO2
KHPT 251935Z AUTO 27006G19KT 10SM CLR 23/15 A2994 RMK AO2
KHPT 251915Z AUTO 28011G14KT 10SM CLR 23/15 A2994 RMK AO2
KHPT 251855Z AUTO 29009G15KT 10SM CLR 23/15 A2994 RMK AO2
KHPT 251835Z AUTO 28009G15KT 10SM CLR 23/14 A2994 RMK AO2
KHPT 251815Z AUTO 28009G15KT 10SM CLR 22/13 A2994 RMK AO2
KHPT 251755Z AUTO 26009G16KT 10SM CLR 22/12 A2994 RMK AO2
KHPT 251735Z AUTO 27014G17KT 10SM CLR 22/12 A2994 RMK AO2
KHPT 251715Z AUTO 27009KT 10SM CLR 22/13 A2994 RMK AO2
KHPT 251655Z AUTO 26014G21KT 10SM CLR 22/12 A2994 RMK AO2
KHPT 251635Z AUTO 26014G18KT 10SM CLR 22/13 A2994 RMK AO2
KHPT 251615Z AUTO 27012G16KT 10SM CLR 22/13 A2993 RMK AO2
KHPT 251555Z AUTO 26014G18KT 10SM CLR 22/15 A2992 RMK AO2
KHPT 251535Z AUTO 26013G18KT 10SM CLR 21/15 A2991 RMK AO2
KHPT 251515Z AUTO 27011KT 10SM CLR 21/16 A2989 RMK AO2
KHPT 251455Z AUTO 27011G16KT 10SM CLR 21/17 A2989 RMK AO2
KHPT 251435Z AUTO 27014G18KT 10SM SCT016 21/17 A2989 RMK AO2
KHPT 251415Z AUTO 27014KT 10SM SCT018 20/17 A2988 RMK AO2
KHPT 251355Z AUTO 27015G26KT 10SM BKN018 20/17 A2989 RMK AO2
KHPT 251335Z AUTO 25014G20KT 10SM SCT014 20/18 A2989 RMK AO2
KHPT 251315Z AUTO 25015G21KT 10SM SCT010 20/18 A2988 RMK AO2
KHPT 251255Z AUTO 25014KT 10SM SCT010 20/18 A2987 RMK AO2
KHPT 251235Z AUTO 24014G20KT 10SM BKN012 BKN018 19/18 A2987 RMK AO2
KHPT 251215Z AUTO 24010KT 10SM OVC012 19/19 A2987 RMK AO2
KHPT 251155Z AUTO 24010KT 7SM OVC012 18/18 A2986 RMK AO2
KHPT 251135Z AUTO 24009KT 7SM BKN012 OVC018 18/18 A2985 RMK AO2
KHPT 251115Z AUTO 24010G15KT 7SM SCT008 BKN014 OVC023 18/18 A2984 RMK AO2
KHPT 251055Z AUTO 23011KT 10SM BKN010 BKN014 OVC020 18/18 A2984 RMK AO2
KHPT 251035Z AUTO 23012KT 10SM SCT010 BKN016 OVC022 19/19 A2983 RMK AO2
KHPT 251015Z AUTO 23011KT 10SM OVC014 19/19 A2982 RMK AO2
KHPT 250955Z AUTO 23011KT 10SM OVC014 18/18 A2981 RMK AO2
KHPT 250935Z AUTO 23011KT 10SM OVC012 19/19 A2981 RMK AO2
KHPT 250915Z AUTO 23010KT 10SM OVC012 18/18 A2981 RMK AO2